Time;durP1;ratioP1;P1;durP2;ratioP2;P2;SDS_P1;SDS_P2;PMS_P1;PMS_P2;Temp;Humidity;BMP_temperature;BMP_pressure;BME280_temperature;BME280_humidity;BME280_pressure;Samples;Min_cycle;Max_cycle;Signal;HPM_P1;HPM_P2
2021/06/06 00:01:43;;;;;;;7.18;3.03;;;17.10;83.10;;;;;;5051275;28;20041;-69
2021/06/06 00:04:15;;;;;;;7.05;3.25;;;17.00;83.90;;;;;;5051237;28;20027;-69
2021/06/06 00:06:41;;;;;;;4.95;3.45;;;17.00;84.20;;;;;;5051176;28;20040;-69
2021/06/06 00:09:11;;;;;;;4.75;2.78;;;16.90;84.60;;;;;;5050923;28;20216;-69
2021/06/06 00:11:41;;;;;;;5.50;3.30;;;16.80;84.80;;;;;;5050532;28;20497;-69
2021/06/06 00:14:10;;;;;;;8.02;3.25;;;16.80;85.00;;;;;;5050416;28;20025;-68
2021/06/06 00:16:41;;;;;;;6.18;2.60;;;16.70;85.00;;;;;;5050878;28;20025;-70
2021/06/06 00:19:08;;;;;;;5.82;2.88;;;16.60;85.20;;;;;;5049420;28;20067;-68
2021/06/06 00:21:36;;;;;;;4.50;2.75;;;16.50;85.30;;;;;;5050848;28;20024;-68
2021/06/06 00:24:04;;;;;;;3.75;2.70;;;16.50;85.60;;;;;;5050831;28;20036;-68
2021/06/06 00:26:30;;;;;;;6.20;3.38;;;16.40;85.70;;;;;;5050559;28;20080;-69
2021/06/06 00:28:55;;;;;;;5.45;3.22;;;16.40;86.10;;;;;;5050766;28;20033;-69
2021/06/06 00:31:22;;;;;;;;;;;16.30;86.30;;;;;;5051079;28;20032;-68
2021/06/06 00:33:49;;;;;;;5.53;3.55;;;16.20;86.00;;;;;;5050413;28;19917;-68
2021/06/06 00:36:15;;;;;;;3.55;2.80;;;16.30;86.10;;;;;;5049383;28;20120;-68
2021/06/06 00:38:41;;;;;;;6.18;4.00;;;16.20;86.50;;;;;;5050545;28;20122;-69
2021/06/06 00:41:07;;;;;;;;;;;16.20;87.80;;;;;;5050694;28;20455;-69
2021/06/06 00:43:33;;;;;;;4.97;2.83;;;16.10;89.10;;;;;;5050578;28;19912;-69
2021/06/06 00:45:59;;;;;;;4.85;2.70;;;16.10;86.30;;;;;;5050398;28;20572;-68
2021/06/06 00:48:25;;;;;;;;;;;16.10;86.70;;;;;;5050828;28;20112;-68
2021/06/06 00:50:58;;;;;;;3.65;2.95;;;16.10;86.80;;;;;;5050394;28;19986;-68
2021/06/06 00:53:29;;;;;;;5.68;3.20;;;16.10;86.60;;;;;;5050325;28;20075;-69
2021/06/06 00:55:55;;;;;;;7.72;3.75;;;16.10;86.80;;;;;;5050116;28;20033;-68
2021/06/06 00:58:22;;;;;;;9.70;4.15;;;16.10;87.50;;;;;;5049152;28;20040;-68
2021/06/06 01:00:50;;;;;;;7.55;3.78;;;16.00;88.40;;;;;;5049943;28;20033;-69
2021/06/06 01:03:18;;;;;;;8.27;2.97;;;15.90;88.90;;;;;;5049910;28;20025;-68
2021/06/06 01:05:55;;;;;;;8.73;2.75;;;15.90;88.80;;;;;;5050028;28;20035;-68
2021/06/06 01:08:21;;;;;;;7.03;3.03;;;15.90;87.70;;;;;;5049885;28;20040;-69
2021/06/06 01:10:52;;;;;;;;;;;15.90;87.60;;;;;;5049073;28;20033;-67
2021/06/06 01:13:34;;;;;;;6.03;3.13;;;15.90;86.90;;;;;;5049729;28;19916;-68
2021/06/06 01:16:08;;;;;;;5.97;3.42;;;15.90;87.10;;;;;;5050029;28;20111;-68
2021/06/06 01:18:37;;;;;;;5.30;3.38;;;15.90;87.00;;;;;;5049740;28;20033;-68
2021/06/06 01:21:19;;;;;;;9.73;3.55;;;15.80;87.20;;;;;;5048331;28;20513;-68
2021/06/06 01:24:06;;;;;;;5.13;2.33;;;15.80;87.60;;;;;;5048599;28;20029;-68
2021/06/06 01:26:56;;;;;;;5.32;2.85;;;15.80;87.50;;;;;;5048272;28;20512;-68
2021/06/06 01:29:37;;;;;;;4.28;2.50;;;15.70;87.20;;;;;;5048315;28;20029;-68
2021/06/06 01:32:19;;;;;;;3.55;2.30;;;15.70;87.90;;;;;;5049541;28;20036;-68
2021/06/06 01:34:57;;;;;;;4.75;2.90;;;15.70;87.40;;;;;;5049211;28;20052;-67
2021/06/06 01:37:24;;;;;;;4.80;3.33;;;15.70;87.60;;;;;;5049286;28;20024;-68
2021/06/06 01:40:08;;;;;;;10.57;3.25;;;15.70;87.60;;;;;;5049428;28;20017;-68
2021/06/06 01:42:38;;;;;;;3.60;2.20;;;15.70;87.80;;;;;;5048778;28;20139;-67
2021/06/06 01:45:14;;;;;;;3.88;2.65;;;15.60;88.40;;;;;;5048238;28;20057;-68
2021/06/06 01:47:43;;;;;;;4.18;3.03;;;15.60;87.60;;;;;;5048291;28;20033;-67
2021/06/06 01:50:18;;;;;;;5.93;3.22;;;15.50;87.70;;;;;;5046788;28;20024;-68
2021/06/06 01:52:45;;;;;;;5.00;3.00;;;15.50;88.10;;;;;;5046737;28;20021;-68
2021/06/06 01:55:14;;;;;;;4.18;2.88;;;15.40;88.50;;;;;;5048146;28;20025;-68
2021/06/06 01:57:41;;;;;;;8.10;3.67;;;15.30;89.40;;;;;;5048079;28;20025;-68
2021/06/06 02:00:13;;;;;;;4.13;3.00;;;15.30;89.10;;;;;;5048121;28;20029;-68
2021/06/06 02:02:39;;;;;;;3.05;1.90;;;15.30;89.40;;;;;;5048022;28;20531;-68
2021/06/06 02:05:07;;;;;;;;;;;15.20;89.40;;;;;;5048468;28;20494;-68
2021/06/06 02:07:35;;;;;;;4.25;2.60;;;15.10;89.80;;;;;;5048059;28;19909;-68
2021/06/06 02:10:20;;;;;;;4.00;2.28;;;15.10;89.60;;;;;;5048120;28;20029;-67
2021/06/06 02:12:50;;;;;;;5.90;3.45;;;15.10;89.50;;;;;;5047750;28;20036;-67
2021/06/06 02:15:23;;;;;;;4.43;2.95;;;15.20;89.50;;;;;;5047709;28;20394;-67
2021/06/06 02:17:51;;;;;;;7.65;3.28;;;15.20;89.70;;;;;;5047778;28;20035;-68
2021/06/06 02:20:18;;;;;;;6.68;3.58;;;15.10;89.90;;;;;;5046587;28;20028;-67
2021/06/06 02:22:44;;;;;;;5.80;3.25;;;15.10;90.10;;;;;;5047697;28;20496;-68
2021/06/06 02:25:11;;;;;;;;;;;15.10;90.20;;;;;;5048326;28;20028;-68
2021/06/06 02:27:49;;;;;;;;;;;15.00;90.50;;;;;;5046743;28;20503;-68
2021/06/06 02:30:23;;;;;;;6.10;3.45;;;15.00;90.50;;;;;;5046496;28;19908;-69
2021/06/06 02:33:35;;;;;;;4.38;3.17;;;14.80;90.60;;;;;;5047622;28;20028;-69
2021/06/06 02:36:05;;;;;;;6.60;3.30;;;14.70;90.90;;;;;;5024190;28;20060;-69
2021/06/06 02:38:52;;;;;;;8.63;2.60;;;14.60;90.90;;;;;;5043424;28;20044;-68
2021/06/06 02:41:31;;;;;;;6.20;2.50;;;14.70;90.90;;;;;;5047434;28;20111;-69
2021/06/06 02:44:00;;;;;;;4.75;2.65;;;14.70;90.90;;;;;;5047297;28;20473;-68
2021/06/06 02:46:27;;;;;;;4.60;2.88;;;14.60;90.90;;;;;;5046319;28;20103;-67
2021/06/06 02:49:04;;;;;;;4.68;2.55;;;14.60;90.90;;;;;;5047631;28;20516;-69
2021/06/06 02:51:31;;;;;;;;;;;14.60;91.00;;;;;;5047785;28;20029;-68
2021/06/06 02:54:02;;;;;;;5.03;2.97;;;14.60;91.10;;;;;;5047339;28;20439;-68
2021/06/06 02:56:32;;;;;;;6.13;3.65;;;14.50;91.10;;;;;;5046071;28;20083;-69
2021/06/06 02:59:09;;;;;;;8.77;3.28;;;14.50;91.30;;;;;;5047227;28;20476;-67
2021/06/06 03:01:36;;;;;;;;;;;14.50;91.50;;;;;;5047708;28;20127;-68
2021/06/06 03:04:04;;;;;;;;;;;14.40;91.60;;;;;;5047769;28;20460;-69
2021/06/06 03:06:57;;;;;;;4.32;2.97;;;14.40;91.70;;;;;;5047415;28;19916;-68
2021/06/06 03:09:23;;;;;;;6.22;2.80;;;14.30;91.70;;;;;;5044213;28;20041;-69
2021/06/06 03:11:52;;;;;;;3.92;2.70;;;14.30;91.70;;;;;;5045998;28;20114;-68
2021/06/06 03:14:21;;;;;;;4.53;3.25;;;14.40;91.80;;;;;;5047731;28;20051;-68
2021/06/06 03:17:09;;;;;;;5.22;3.22;;;14.40;91.90;;;;;;5046627;28;20100;-69
2021/06/06 03:19:46;;;;;;;5.55;2.92;;;14.40;91.90;;;;;;5047997;28;20029;-68
2021/06/06 03:22:18;;;;;;;4.65;2.80;;;14.50;91.90;;;;;;5046438;28;20807;-69
2021/06/06 03:25:09;;;;;;;3.00;2.60;;;14.50;91.80;;;;;;5047916;28;20029;-68
2021/06/06 03:27:38;;;;;;;4.05;2.55;;;14.60;91.70;;;;;;5047654;28;20025;-68
2021/06/06 03:30:09;;;;;;;3.47;2.85;;;14.70;91.50;;;;;;5047966;28;20067;-67
2021/06/06 03:32:38;;;;;;;4.45;2.60;;;14.80;91.30;;;;;;5047912;28;20033;-68
2021/06/06 03:35:07;;;;;;;5.60;2.83;;;14.80;91.20;;;;;;5047657;28;20041;-68
2021/06/06 03:37:34;;;;;;;6.25;3.92;;;14.80;91.20;;;;;;5047879;28;20116;-68
2021/06/06 03:39:59;;;;;;;9.75;3.70;;;14.90;91.20;;;;;;5047945;28;20549;-68
2021/06/06 03:42:25;;;;;;;;;;;15.00;91.10;;;;;;5046805;28;20120;-67
2021/06/06 03:44:51;;;;;;;12.25;3.65;;;15.00;91.10;;;;;;5047928;28;20015;-69
2021/06/06 03:47:17;;;;;;;;;;;15.20;91.10;;;;;;5048666;28;20071;-68
2021/06/06 03:49:43;;;;;;;6.18;3.63;;;15.20;91.20;;;;;;5050282;28;19913;-68
2021/06/06 03:52:09;;;;;;;7.88;3.92;;;15.30;91.20;;;;;;5051419;28;20037;-69
2021/06/06 03:54:35;;;;;;;4.93;3.95;;;15.40;91.20;;;;;;5051452;28;20057;-68
2021/06/06 03:57:00;;;;;;;5.57;3.78;;;15.60;91.10;;;;;;5051195;28;20027;-68
2021/06/06 03:59:26;;;;;;;;;;;15.80;90.80;;;;;;5051629;28;20033;-68
2021/06/06 04:01:53;;;;;;;8.45;3.17;;;16.10;90.40;;;;;;5051172;28;20008;-68
2021/06/06 04:04:19;;;;;;;8.98;2.72;;;16.30;88.80;;;;;;5051335;28;20725;-68
2021/06/06 04:06:46;;;;;;;5.97;3.28;;;16.60;87.30;;;;;;5051114;28;20037;-69
2021/06/06 04:09:13;;;;;;;5.18;2.38;;;16.90;86.10;;;;;;5050930;28;20048;-68
2021/06/06 04:11:38;;;;;;;5.10;2.53;;;17.30;84.40;;;;;;5051076;28;20033;-68
2021/06/06 04:14:05;;;;;;;5.43;2.30;;;17.60;82.70;;;;;;5050930;28;20028;-68
2021/06/06 04:16:33;;;;;;;5.40;2.88;;;17.60;81.90;;;;;;5051026;28;20021;-68
2021/06/06 04:18:58;;;;;;;5.32;2.45;;;17.70;81.70;;;;;;5050710;28;20562;-68
2021/06/06 04:21:28;;;;;;;4.88;2.40;;;17.80;82.40;;;;;;5050712;28;20033;-68
2021/06/06 04:23:54;;;;;;;6.25;2.30;;;17.90;81.40;;;;;;5050775;28;20032;-67
2021/06/06 04:26:20;;;;;;;4.30;2.70;;;18.00;81.50;;;;;;5050807;28;20489;-68
2021/06/06 04:28:46;;;;;;;5.88;2.17;;;18.10;81.00;;;;;;5051214;28;20033;-68
2021/06/06 04:31:13;;;;;;;5.25;2.80;;;18.20;80.60;;;;;;5050614;28;20029;-68
2021/06/06 04:33:39;;;;;;;3.03;2.00;;;18.20;80.60;;;;;;5050564;28;20028;-68
2021/06/06 04:36:05;;;;;;;3.58;2.47;;;18.40;80.30;;;;;;5050720;28;20072;-69
2021/06/06 04:38:31;;;;;;;4.95;2.58;;;18.60;80.10;;;;;;5050562;28;20508;-68
2021/06/06 04:41:00;;;;;;;3.67;2.33;;;18.70;79.40;;;;;;5050503;28;20095;-69
2021/06/06 04:43:25;;;;;;;6.53;2.42;;;18.90;79.10;;;;;;5050561;28;20059;-67
2021/06/06 04:45:51;;;;;;;4.22;2.50;;;19.10;78.90;;;;;;5050419;28;20076;-70
2021/06/06 04:48:29;;;;;;;4.28;2.58;;;19.20;78.50;;;;;;5050318;28;20405;-67
2021/06/06 04:51:03;;;;;;;4.05;2.58;;;19.30;77.90;;;;;;5050324;28;20196;-68
2021/06/06 04:53:29;;;;;;;6.82;2.20;;;19.40;77.20;;;;;;5050108;28;20036;-68
2021/06/06 04:55:56;;;;;;;4.20;2.30;;;19.50;76.40;;;;;;5050071;28;20036;-69
2021/06/06 04:58:23;;;;;;;4.30;2.30;;;19.60;75.80;;;;;;5048313;28;20033;-68
2021/06/06 05:00:50;;;;;;;4.93;2.28;;;19.90;74.50;;;;;;5050087;28;20044;-69
2021/06/06 05:03:17;;;;;;;10.95;1.98;;;20.10;73.60;;;;;;5049992;28;20508;-68
2021/06/06 05:05:43;;;;;;;3.17;1.92;;;20.30;73.70;;;;;;5050036;28;20020;-68
2021/06/06 05:08:10;;;;;;;3.72;2.28;;;20.50;73.50;;;;;;5048666;28;20078;-68
2021/06/06 05:10:37;;;;;;;5.20;2.15;;;20.60;73.30;;;;;;5049960;28;20087;-69
2021/06/06 05:13:05;;;;;;;3.80;2.10;;;20.80;72.40;;;;;;5049892;28;20041;-68
2021/06/06 05:15:31;;;;;;;5.18;2.42;;;21.10;70.90;;;;;;5049928;28;20029;-68
2021/06/06 05:17:57;;;;;;;3.97;2.10;;;21.20;69.40;;;;;;5049913;28;20033;-69
2021/06/06 05:20:28;;;;;;;3.50;2.17;;;21.20;68.80;;;;;;5049816;28;20033;-68
2021/06/06 05:22:53;;;;;;;4.10;2.35;;;21.20;69.50;;;;;;5049713;28;20044;-69
2021/06/06 05:25:20;;;;;;;3.00;2.25;;;21.30;69.10;;;;;;5049530;28;20133;-68
2021/06/06 05:27:46;;;;;;;4.60;2.50;;;21.30;68.30;;;;;;5049622;28;20025;-68
2021/06/06 05:30:17;;;;;;;4.78;2.80;;;21.40;68.00;;;;;;5049721;28;20021;-68
2021/06/06 05:32:43;;;;;;;3.95;2.65;;;21.50;68.00;;;;;;5049460;28;20526;-69
2021/06/06 05:35:10;;;;;;;6.78;2.42;;;21.90;67.00;;;;;;5049133;28;20064;-69
2021/06/06 05:37:35;;;;;;;8.70;2.72;;;22.30;64.80;;;;;;5049564;28;20036;-69
2021/06/06 05:40:03;;;;;;;7.28;2.70;;;22.40;64.30;;;;;;5049499;28;20086;-69
2021/06/06 05:42:29;;;;;;;3.63;2.60;;;22.50;64.50;;;;;;5049059;28;20044;-69
2021/06/06 05:44:54;;;;;;;9.50;3.20;;;22.90;63.40;;;;;;5049332;28;20025;-70
2021/06/06 05:47:20;;;;;;;4.47;3.10;;;23.20;62.40;;;;;;5049054;28;20040;-70
2021/06/06 05:49:46;;;;;;;3.85;2.20;;;23.50;61.20;;;;;;5049167;28;20104;-69
2021/06/06 05:52:11;;;;;;;4.22;2.30;;;24.10;58.70;;;;;;5049196;28;20082;-69
2021/06/06 05:54:37;;;;;;;5.18;2.90;;;25.10;56.50;;;;;;5048923;28;20028;-69
2021/06/06 05:57:03;;;;;;;4.10;2.47;;;26.20;53.00;;;;;;5047606;28;20406;-70
2021/06/06 05:59:29;;;;;;;4.10;2.75;;;27.10;50.10;;;;;;5048998;28;20029;-70
2021/06/06 06:01:55;;;;;;;5.53;2.60;;;28.40;46.30;;;;;;5048849;28;20048;-70
2021/06/06 06:04:21;;;;;;;4.00;2.35;;;29.30;43.50;;;;;;5048958;28;20072;-69
2021/06/06 06:06:47;;;;;;;6.95;2.50;;;30.20;42.20;;;;;;5048981;28;20048;-71
2021/06/06 06:09:12;;;;;;;5.53;1.85;;;31.30;40.10;;;;;;5048689;28;20028;-71
2021/06/06 06:11:38;;;;;;;4.18;1.83;;;31.70;38.10;;;;;;5047969;28;20028;-70
2021/06/06 06:14:04;;;;;;;4.85;2.10;;;32.10;37.00;;;;;;5048841;28;20504;-69
2021/06/06 06:16:36;;;;;;;4.13;2.50;;;32.50;36.00;;;;;;5048680;28;20054;-69
2021/06/06 06:19:02;;;;;;;4.35;1.90;;;33.20;34.80;;;;;;5048606;28;20025;-68
2021/06/06 06:21:30;;;;;;;3.80;2.10;;;32.90;35.00;;;;;;5048576;28;20037;-68
2021/06/06 06:23:56;;;;;;;2.53;1.73;;;33.00;35.40;;;;;;5047310;28;20134;-69
2021/06/06 06:26:23;;;;;;;3.47;2.00;;;33.70;34.60;;;;;;5048607;28;20098;-69
2021/06/06 06:28:48;;;;;;;4.05;1.95;;;33.70;34.60;;;;;;5048458;28;20025;-69
2021/06/06 06:31:15;;;;;;;3.40;1.88;;;34.00;33.70;;;;;;5048267;28;20033;-68
2021/06/06 06:33:41;;;;;;;7.15;1.70;;;34.20;32.90;;;;;;5046514;28;20061;-69
2021/06/06 06:36:09;;;;;;;2.80;1.58;;;34.40;32.10;;;;;;5048364;28;20024;-69
2021/06/06 06:38:35;;;;;;;2.83;1.73;;;33.70;33.60;;;;;;5048456;28;20033;-67
2021/06/06 06:41:02;;;;;;;6.43;1.90;;;33.90;32.80;;;;;;5048165;28;20033;-67
2021/06/06 06:43:27;;;;;;;1.90;1.50;;;33.90;32.80;;;;;;5048276;28;20035;-68
2021/06/06 06:45:56;;;;;;;3.30;1.25;;;33.80;32.50;;;;;;5048261;28;20029;-68
2021/06/06 06:48:24;;;;;;;2.83;1.35;;;33.80;31.90;;;;;;5048257;28;20040;-69
2021/06/06 06:50:51;;;;;;;5.57;1.20;;;34.30;30.80;;;;;;5048369;28;20482;-68
2021/06/06 06:53:19;;;;;;;3.10;1.30;;;33.80;31.60;;;;;;5048069;28;20032;-69
2021/06/06 06:55:45;;;;;;;3.90;1.10;;;33.60;31.60;;;;;;5048140;28;20130;-68
2021/06/06 06:58:11;;;;;;;6.43;1.10;;;33.40;31.90;;;;;;5046770;28;20130;-67
2021/06/06 07:00:41;;;;;;;2.58;1.30;;;33.20;32.30;;;;;;5048121;28;20033;-67
2021/06/06 07:03:08;;;;;;;2.05;1.38;;;33.30;33.10;;;;;;5047810;28;20047;-68
2021/06/06 07:05:35;;;;;;;5.47;1.60;;;32.90;32.50;;;;;;5048142;28;20017;-68
2021/06/06 07:08:02;;;;;;;2.10;1.30;;;32.70;33.40;;;;;;5046664;28;20040;-68
2021/06/06 07:10:30;;;;;;;3.63;1.50;;;32.80;32.10;;;;;;5047854;28;20064;-68
2021/06/06 07:12:56;;;;;;;7.85;1.70;;;32.70;33.70;;;;;;5046527;28;20082;-67
2021/06/06 07:15:22;;;;;;;2.25;1.40;;;32.80;32.80;;;;;;5047780;28;20029;-67
2021/06/06 07:17:49;;;;;;;1.95;1.50;;;32.00;34.00;;;;;;5046576;28;20025;-67
2021/06/06 07:20:19;;;;;;;3.67;2.08;;;32.10;34.90;;;;;;5048248;28;20029;-70
2021/06/06 07:22:44;;;;;;;4.03;1.80;;;31.70;35.20;;;;;;5050660;28;20040;-68
2021/06/06 07:25:12;;;;;;;3.88;1.90;;;31.80;35.00;;;;;;5051597;28;20033;-68
2021/06/06 07:27:43;;;;;;;2.00;1.65;;;31.50;35.80;;;;;;5050937;28;20111;-69
2021/06/06 07:30:19;;;;;;;6.18;1.65;;;31.30;36.20;;;;;;5050941;28;20398;-68
2021/06/06 07:32:45;;;;;;;5.15;1.80;;;31.40;36.60;;;;;;5050863;28;20037;-67
2021/06/06 07:35:12;;;;;;;6.35;1.50;;;31.20;36.50;;;;;;5049231;28;20136;-67
2021/06/06 07:37:38;;;;;;;6.00;1.73;;;31.20;36.50;;;;;;5050943;28;20020;-67
2021/06/06 07:40:07;;;;;;;4.57;1.30;;;31.10;36.40;;;;;;5050964;28;20083;-68
2021/06/06 07:42:34;;;;;;;2.72;1.55;;;31.30;36.50;;;;;;5050796;28;20040;-67
2021/06/06 07:45:01;;;;;;;2.63;1.85;;;31.00;37.30;;;;;;5051373;28;20551;-68
2021/06/06 07:47:27;;;;;;;2.13;1.42;;;31.30;37.40;;;;;;5051554;28;20051;-68
2021/06/06 07:49:52;;;;;;;2.58;1.65;;;31.20;36.00;;;;;;5051517;28;20398;-68
2021/06/06 07:52:18;;;;;;;4.22;1.88;;;31.50;36.80;;;;;;5051418;28;20025;-68
2021/06/06 07:54:45;;;;;;;3.83;1.65;;;31.50;35.90;;;;;;5049944;28;20029;-69
2021/06/06 07:57:11;;;;;;;3.15;1.50;;;31.70;35.90;;;;;;5051319;28;20033;-68
2021/06/06 07:59:37;;;;;;;4.82;1.80;;;31.60;36.10;;;;;;5051198;28;20025;-68
2021/06/06 08:02:03;;;;;;;6.03;2.03;;;31.40;37.30;;;;;;5051212;28;20453;-68
2021/06/06 08:04:31;;;;;;;4.32;1.80;;;31.40;36.30;;;;;;5051216;28;20033;-68
2021/06/06 08:06:56;;;;;;;4.13;1.90;;;31.60;37.00;;;;;;5051123;28;20033;-68
2021/06/06 08:09:22;;;;;;;3.20;1.63;;;31.40;36.60;;;;;;5051003;28;20043;-69
2021/06/06 08:11:48;;;;;;;2.88;1.67;;;31.20;35.80;;;;;;5051112;28;20029;-67
2021/06/06 08:14:14;;;;;;;4.18;1.80;;;30.80;37.10;;;;;;5051138;28;20504;-68
2021/06/06 08:16:41;;;;;;;2.88;1.52;;;30.70;36.70;;;;;;5050839;28;20021;-68
2021/06/06 08:19:06;;;;;;;3.90;2.05;;;30.20;38.10;;;;;;5049356;28;20025;-68
2021/06/06 08:21:37;;;;;;;1.77;1.48;;;30.40;39.00;;;;;;5050773;28;20379;-68
2021/06/06 08:24:04;;;;;;;4.45;1.70;;;30.60;39.40;;;;;;5050866;28;20040;-68
2021/06/06 08:26:31;;;;;;;3.28;1.40;;;31.00;37.60;;;;;;5050796;28;20114;-69
2021/06/06 08:28:57;;;;;;;6.18;1.88;;;30.90;37.70;;;;;;5050830;28;20029;-68
2021/06/06 08:31:30;;;;;;;4.68;1.80;;;30.70;37.20;;;;;;5050754;28;20036;-67
2021/06/06 08:33:56;;;;;;;2.78;1.55;;;30.70;37.50;;;;;;5049473;28;20040;-68
2021/06/06 08:36:27;;;;;;;4.00;1.50;;;30.90;36.70;;;;;;5050641;28;20111;-68
2021/06/06 08:38:56;;;;;;;3.50;1.50;;;31.10;35.50;;;;;;5049417;28;20394;-69
2021/06/06 08:41:25;;;;;;;5.97;1.50;;;31.10;36.00;;;;;;5050186;28;20033;-68
2021/06/06 08:43:56;;;;;;;4.68;2.33;;;31.00;36.40;;;;;;5050413;28;20025;-68
2021/06/06 08:46:24;;;;;;;6.53;2.38;;;30.70;37.10;;;;;;5050350;28;20056;-68
2021/06/06 08:48:50;;;;;;;2.95;1.80;;;30.60;36.20;;;;;;5048989;28;20079;-67
2021/06/06 08:51:39;;;;;;;6.63;1.90;;;30.40;37.50;;;;;;5050077;28;20413;-68
2021/06/06 08:54:41;;;;;;;4.55;1.63;;;30.60;37.80;;;;;;5049707;28;20044;-68
2021/06/06 08:57:37;;;;;;;2.03;1.42;;;31.30;35.20;;;;;;5049952;28;20035;-67
2021/06/06 09:00:25;;;;;;;5.65;1.98;;;31.50;35.20;;;;;;5049641;28;20405;-68
2021/06/06 09:02:57;;;;;;;3.35;1.95;;;31.20;36.00;;;;;;5049900;28;20498;-68
2021/06/06 09:05:36;;;;;;;2.15;1.38;;;31.10;35.90;;;;;;5050040;28;20036;-67
2021/06/06 09:08:05;;;;;;;9.55;1.90;;;30.90;35.60;;;;;;5050196;28;20128;-68
2021/06/06 09:10:38;;;;;;;2.95;1.52;;;30.70;37.40;;;;;;5050081;28;20383;-68
2021/06/06 09:13:07;;;;;;;4.00;1.90;;;30.90;37.70;;;;;;5049904;28;20276;-67
2021/06/06 09:15:34;;;;;;;2.60;1.58;;;31.10;36.80;;;;;;5049992;28;20029;-67
2021/06/06 09:18:16;;;;;;;3.05;1.77;;;31.20;35.60;;;;;;5049990;28;21123;-66
2021/06/06 09:20:43;;;;;;;2.38;1.40;;;30.90;36.40;;;;;;5048482;28;20017;-65
2021/06/06 09:23:12;;;;;;;6.65;1.40;;;31.00;35.70;;;;;;5048229;28;20076;-67
2021/06/06 09:25:41;;;;;;;2.20;1.23;;;31.20;35.30;;;;;;5048229;28;20044;-67
2021/06/06 09:28:23;;;;;;;9.95;2.15;;;31.10;35.50;;;;;;5049510;28;20509;-67
2021/06/06 09:31:06;;;;;;;5.10;1.77;;;30.80;36.80;;;;;;5049549;28;20032;-66
2021/06/06 09:33:34;;;;;;;4.63;2.10;;;30.80;36.50;;;;;;5049341;28;20028;-67
2021/06/06 09:36:04;;;;;;;3.60;2.28;;;30.90;36.80;;;;;;5049407;28;20036;-67
2021/06/06 09:38:30;;;;;;;3.47;2.05;;;30.40;36.70;;;;;;5049266;28;20053;-66
2021/06/06 09:41:17;;;;;;;4.13;1.52;;;29.80;37.20;;;;;;5049168;28;20083;-67
2021/06/06 09:43:56;;;;;;;4.80;1.70;;;29.40;38.60;;;;;;5048978;28;20513;-67
2021/06/06 09:46:22;;;;;;;4.38;1.58;;;29.50;39.50;;;;;;5049041;28;20039;-66
2021/06/06 09:48:49;;;;;;;4.10;1.13;;;30.00;39.00;;;;;;5049369;28;20021;-66
2021/06/06 09:51:32;;;;;;;6.00;1.40;;;30.30;36.60;;;;;;5048708;28;20025;-66
2021/06/06 09:54:32;;;;;;;8.13;1.98;;;29.90;37.70;;;;;;5046828;28;20115;-65
2021/06/06 09:57:03;;;;;;;3.38;2.10;;;29.60;38.70;;;;;;5039333;28;20053;-67
2021/06/06 09:59:32;;;;;;;4.20;1.90;;;29.40;38.80;;;;;;5047538;28;20040;-66
2021/06/06 10:02:34;;;;;;;3.03;2.10;;;29.40;38.20;;;;;;5043972;28;20036;-67
2021/06/06 10:05:04;;;;;;;4.93;1.95;;;28.90;39.30;;;;;;5045028;28;20131;-67
2021/06/06 10:07:37;;;;;;;5.38;1.65;;;28.80;40.20;;;;;;5048016;28;20032;-67
2021/06/06 10:10:22;;;;;;;8.68;1.75;;;28.70;39.50;;;;;;5046996;28;20099;-67
2021/06/06 10:12:49;;;;;;;5.30;1.83;;;28.50;38.80;;;;;;5045649;28;20028;-67
2021/06/06 10:15:25;;;;;;;2.38;1.55;;;28.30;40.10;;;;;;5047395;28;20108;-67
2021/06/06 10:18:07;;;;;;;6.43;1.63;;;28.10;40.80;;;;;;5043046;28;20496;-67
2021/06/06 10:20:48;;;;;;;8.98;2.10;;;28.10;41.90;;;;;;5046315;28;20037;-66
2021/06/06 10:23:35;;;;;;;8.40;2.55;;;27.90;41.00;;;;;;5046551;28;20098;-67
2021/06/06 10:26:16;;;;;;;5.50;1.75;;;27.60;40.80;;;;;;5046629;28;20039;-67
2021/06/06 10:28:54;;;;;;;3.47;1.20;;;27.40;41.70;;;;;;5048379;28;20036;-68
2021/06/06 10:31:26;;;;;;;4.03;1.80;;;27.50;41.60;;;;;;5048390;28;20029;-68
2021/06/06 10:34:03;;;;;;;2.60;1.48;;;27.80;41.10;;;;;;5047018;28;20420;-68
2021/06/06 10:36:33;;;;;;;3.05;1.27;;;27.70;40.80;;;;;;5048397;28;20025;-68
2021/06/06 10:39:00;;;;;;;3.05;1.40;;;27.60;41.70;;;;;;5048289;28;20032;-68
2021/06/06 10:41:36;;;;;;;2.30;1.92;;;27.70;40.70;;;;;;5048445;28;20055;-68
2021/06/06 10:44:07;;;;;;;2.83;1.73;;;27.50;42.00;;;;;;5047053;28;20041;-67
2021/06/06 10:46:44;;;;;;;3.22;1.83;;;27.20;42.00;;;;;;5047921;28;20057;-68
2021/06/06 10:49:24;;;;;;;4.00;1.77;;;27.10;42.90;;;;;;5046790;28;20033;-68
2021/06/06 10:51:53;;;;;;;5.85;2.00;;;26.80;43.40;;;;;;5047491;28;20029;-67
2021/06/06 10:54:42;;;;;;;2.38;1.50;;;26.50;43.20;;;;;;5048199;28;20060;-67
2021/06/06 10:57:13;;;;;;;3.38;1.83;;;26.30;43.50;;;;;;5047475;28;20343;-68
2021/06/06 10:59:54;;;;;;;2.67;1.65;;;26.30;44.20;;;;;;5048212;28;20489;-68
2021/06/06 11:02:38;;;;;;;4.50;1.85;;;26.60;44.00;;;;;;5048100;28;20127;-67
2021/06/06 11:05:23;;;;;;;4.75;1.70;;;26.70;42.80;;;;;;5046537;28;20065;-67
2021/06/06 11:07:49;;;;;;;3.17;1.30;;;26.90;44.40;;;;;;5048017;28;20025;-67
2021/06/06 11:10:20;;;;;;;3.50;1.48;;;27.00;42.60;;;;;;5047973;28;20101;-68
2021/06/06 11:12:49;;;;;;;3.17;1.80;;;27.10;42.20;;;;;;5046867;28;20056;-68
2021/06/06 11:15:42;;;;;;;2.33;1.60;;;27.30;41.60;;;;;;5047854;28;20021;-68
2021/06/06 11:18:15;;;;;;;3.55;2.20;;;27.30;41.10;;;;;;5047997;28;20040;-68
2021/06/06 11:21:08;;;;;;;2.60;1.77;;;27.20;42.60;;;;;;5047857;28;20021;-68
2021/06/06 11:23:41;;;;;;;5.10;1.50;;;27.10;42.00;;;;;;5046787;28;20053;-67
2021/06/06 11:26:24;;;;;;;4.00;1.67;;;27.20;42.10;;;;;;5047705;28;20106;-68
2021/06/06 11:29:05;;;;;;;2.55;1.77;;;27.40;41.80;;;;;;5046670;28;20436;-67
2021/06/06 11:31:34;;;;;;;3.08;1.77;;;27.50;41.60;;;;;;5047958;28;20032;-68
2021/06/06 11:34:21;;;;;;;3.60;1.73;;;27.60;41.40;;;;;;5047488;28;20033;-68
2021/06/06 11:36:47;;;;;;;2.78;1.50;;;27.90;40.60;;;;;;5047749;28;20028;-67
2021/06/06 11:39:18;;;;;;;3.22;1.60;;;27.90;40.30;;;;;;5047792;28;20035;-67
2021/06/06 11:41:46;;;;;;;4.55;2.38;;;28.20;40.80;;;;;;5047659;28;20123;-67
2021/06/06 11:44:39;;;;;;;3.75;2.00;;;28.10;40.10;;;;;;5047682;28;20025;-67
2021/06/06 11:47:10;;;;;;;4.90;1.83;;;27.60;40.80;;;;;;5045238;28;20029;-68
2021/06/06 11:49:54;;;;;;;2.55;1.63;;;27.00;42.70;;;;;;5047746;28;20481;-67
2021/06/06 11:52:46;;;;;;;2.63;1.75;;;26.80;43.20;;;;;;5047589;28;20041;-68
2021/06/06 11:55:24;;;;;;;4.22;1.73;;;26.50;42.70;;;;;;5046117;28;20817;-67
2021/06/06 11:57:55;;;;;;;3.75;1.90;;;26.30;43.80;;;;;;5047548;28;20115;-68
2021/06/06 12:01:02;;;;;;;7.32;1.60;;;26.30;43.70;;;;;;5047465;28;20495;-68
2021/06/06 12:03:35;;;;;;;3.88;2.47;;;26.30;42.90;;;;;;5047137;28;20049;-67
2021/06/06 12:06:28;;;;;;;4.82;2.10;;;26.70;43.00;;;;;;5046120;28;20532;-67
2021/06/06 12:08:57;;;;;;;5.57;2.28;;;27.30;43.50;;;;;;5048489;28;20766;-68
2021/06/06 12:11:30;;;;;;;5.55;1.50;;;27.70;42.70;;;;;;5050971;28;20029;-66
2021/06/06 12:14:19;;;;;;;7.47;1.80;;;28.10;42.10;;;;;;5050950;28;20444;-68
2021/06/06 12:17:00;;;;;;;7.97;1.80;;;28.70;41.20;;;;;;5050994;28;20037;-67
2021/06/06 12:19:38;;;;;;;3.47;1.50;;;28.90;39.20;;;;;;5050937;28;20025;-68
2021/06/06 12:22:13;;;;;;;3.10;1.58;;;28.90;38.80;;;;;;5049283;28;20033;-68
2021/06/06 12:24:39;;;;;;;4.80;2.00;;;28.80;39.20;;;;;;5050598;28;20029;-68
2021/06/06 12:27:18;;;;;;;4.00;1.80;;;28.70;39.40;;;;;;5048844;28;20033;-67
2021/06/06 12:29:57;;;;;;;2.45;1.27;;;28.40;39.20;;;;;;5048702;28;20055;-68
2021/06/06 12:32:51;;;;;;;4.82;1.45;;;28.10;39.70;;;;;;5050502;28;20033;-68
2021/06/06 12:35:21;;;;;;;3.97;1.92;;;27.80;41.30;;;;;;5050082;28;20135;-68
2021/06/06 12:37:48;;;;;;;2.88;1.40;;;27.60;41.40;;;;;;5050525;28;20033;-67
2021/06/06 12:40:20;;;;;;;3.25;1.85;;;27.10;41.30;;;;;;5050449;28;20079;-67
2021/06/06 12:42:49;;;;;;;2.35;1.25;;;26.80;42.80;;;;;;5050337;28;20052;-66
2021/06/06 12:45:16;;;;;;;2.15;1.45;;;26.60;42.80;;;;;;5050071;28;20417;-67
2021/06/06 12:47:44;;;;;;;2.50;1.45;;;26.50;43.10;;;;;;5050401;28;20032;-68
2021/06/06 12:50:14;;;;;;;1.90;1.50;;;26.30;43.10;;;;;;5048056;28;20504;-67
2021/06/06 12:52:44;;;;;;;3.55;1.60;;;26.20;43.10;;;;;;5048338;28;20405;-67
2021/06/06 12:55:19;;;;;;;2.72;1.40;;;26.20;43.90;;;;;;5049991;28;20024;-68
2021/06/06 12:58:02;;;;;;;4.68;1.80;;;26.10;44.30;;;;;;5046559;28;20494;-67
2021/06/06 13:00:41;;;;;;;2.35;1.38;;;26.10;43.10;;;;;;5047255;28;20067;-67
2021/06/06 13:03:18;;;;;;;2.92;1.70;;;26.30;43.80;;;;;;5046862;28;20037;-67
2021/06/06 13:05:47;;;;;;;3.15;1.75;;;26.50;42.40;;;;;;5047151;28;20040;-68
2021/06/06 13:08:30;;;;;;;2.75;1.65;;;26.60;43.40;;;;;;5045655;28;20036;-68
2021/06/06 13:10:59;;;;;;;2.28;1.25;;;26.90;42.40;;;;;;5047298;28;20021;-66
2021/06/06 13:13:34;;;;;;;2.67;1.40;;;26.90;41.40;;;;;;5047166;28;20556;-68